Time;durP1;ratioP1;P1;durP2;ratioP2;P2;SDS_P1;SDS_P2;PMS_P1;PMS_P2;Temp;Humidity;BMP_temperature;BMP_pressure;BME280_temperature;BME280_humidity;BME280_pressure;Samples;Min_cycle;Max_cycle;Signal;HPM_P1;HPM_P2
2023/05/08 00:00:11;;;;;;;16.60;11.30;;;;;;;4.18;77.08;102016.25;105082;1271;97976;-79
2023/05/08 00:03:15;;;;;;;15.80;11.10;;;;;;;4.14;77.11;102019.23;105063;1282;99684;-79
2023/05/08 00:06:04;;;;;;;15.00;11.20;;;;;;;4.06;76.83;102016.63;105533;1270;101340;-79
2023/05/08 00:08:50;;;;;;;15.00;10.80;;;;;;;3.99;76.88;102016.07;105558;1269;100369;-79
2023/05/08 00:11:35;;;;;;;15.90;11.00;;;;;;;3.97;77.13;102018.54;105126;1282;98574;-81
2023/05/08 00:14:21;;;;;;;13.40;10.50;;;;;;;3.93;77.21;102021.95;105022;1274;97974;-78
2023/05/08 00:17:06;;;;;;;18.90;11.00;;;;;;;3.87;77.49;102024.56;104978;1268;97963;-79
2023/05/08 00:19:52;;;;;;;16.70;11.70;;;;;;;3.81;77.44;102027.09;105092;1271;101354;-79
2023/05/08 00:22:37;;;;;;;16.90;11.10;;;;;;;3.75;77.45;102027.89;104938;1267;100362;-79
2023/05/08 00:25:23;;;;;;;12.90;9.80;;;;;;;3.68;77.20;102030.45;105100;1267;97984;-80
2023/05/08 00:28:09;;;;;;;18.10;10.80;;;;;;;3.65;77.30;102033.86;105062;1269;98042;-80
2023/05/08 00:30:54;;;;;;;12.50;9.70;;;;;;;3.61;77.29;102033.27;105474;1271;98476;-79
2023/05/08 00:33:40;;;;;;;11.90;8.20;;;;;;;3.57;77.07;102031.85;104764;1275;101737;-78
2023/05/08 00:36:26;;;;;;;11.90;8.60;;;;;;;3.50;77.38;102030.02;105000;1267;100383;-79
2023/05/08 00:39:12;;;;;;;11.70;8.30;;;;;;;3.46;77.63;102029.59;105032;1267;98909;-80
2023/05/08 00:41:57;;;;;;;11.60;8.00;;;;;;;3.45;77.58;102034.98;105034;1281;97919;-79
2023/05/08 00:44:43;;;;;;;11.10;7.60;;;;;;;3.44;77.64;102038.23;105093;1270;97861;-78
2023/05/08 00:47:30;;;;;;;12.60;7.80;;;;;;;3.42;77.82;102039.77;104979;1271;101353;-79
2023/05/08 00:50:17;;;;;;;11.30;8.80;;;;;;;3.36;77.77;102041.60;104795;1271;99863;-79
2023/05/08 00:53:03;;;;;;;15.20;8.20;;;;;;;3.29;77.55;102045.80;105087;1271;98064;-80
2023/05/08 00:55:50;;;;;;;12.50;7.90;;;;;;;3.24;77.75;102044.92;104992;1269;99338;-79
2023/05/08 00:58:37;;;;;;;10.70;8.30;;;;;;;3.19;77.89;102043.66;105051;1267;98541;-79
2023/05/08 01:01:23;;;;;;;14.30;8.50;;;;;;;3.14;77.96;102044.68;105159;1270;102425;-80
2023/05/08 01:04:09;;;;;;;12.10;8.70;;;;;;;3.12;78.18;102050.50;105004;1270;99194;-78
2023/05/08 01:06:55;;;;;;;10.90;7.90;;;;;;;3.09;78.10;102055.27;105071;1267;97966;-80
2023/05/08 01:09:40;;;;;;;10.90;7.60;;;;;;;3.05;78.35;102056.05;104987;1267;98089;-80
2023/05/08 01:12:46;;;;;;;12.10;7.80;;;;;;;3.01;78.40;102060.73;105571;1267;98566;-79
2023/05/08 01:15:40;;;;;;;11.60;7.60;;;;;;;2.98;78.42;102061.89;104962;1272;101355;-79
2023/05/08 01:18:35;;;;;;;12.40;8.10;;;;;;;2.94;78.24;102058.40;105050;1273;100729;-79
2023/05/08 01:21:45;;;;;;;11.60;8.30;;;;;;;2.92;78.08;102062.98;105058;1273;99045;-81
2023/05/08 01:24:57;;;;;;;11.90;8.50;;;;;;;2.91;78.35;102068.70;105017;1267;98071;-80
2023/05/08 01:27:43;;;;;;;10.90;8.40;;;;;;;2.88;78.32;102070.63;105031;1270;97964;-79
2023/05/08 01:31:04;;;;;;;13.40;8.60;;;;;;;2.87;78.06;102074.40;105542;1269;101382;-79
2023/05/08 01:33:58;;;;;;;12.30;9.00;;;;;;;2.84;78.03;102077.45;105074;1282;99068;-79
2023/05/08 01:36:56;;;;;;;14.10;9.20;;;;;;;2.82;78.18;102079.49;104997;1267;99552;-80
2023/05/08 01:40:02;;;;;;;14.20;8.40;;;;;;;2.79;78.35;102081.84;105061;1270;96563;-79
2023/05/08 01:43:12;;;;;;;11.90;9.00;;;;;;;2.74;78.25;102084.46;105010;1272;97882;-79
2023/05/08 01:46:04;;;;;;;11.30;8.40;;;;;;;2.68;78.41;102084.14;105574;1270;101379;-79
2023/05/08 01:49:22;;;;;;;12.20;8.30;;;;;;;2.65;78.57;102084.70;105086;1267;99193;-79
2023/05/08 01:52:17;;;;;;;9.70;7.80;;;;;;;2.61;78.48;102084.65;105027;1270;99373;-80
2023/05/08 01:55:19;;;;;;;10.90;7.80;;;;;;;2.55;78.36;102088.01;105574;1267;98700;-79
2023/05/08 01:58:08;;;;;;;11.50;8.20;;;;;;;2.51;78.33;102090.23;105081;1268;98477;-80
2023/05/08 02:00:55;;;;;;;15.80;8.90;;;;;;;2.51;78.67;102092.00;105095;1272;102151;-77
2023/05/08 02:03:44;;;;;;;10.60;8.40;;;;;;;2.50;78.59;102094.15;105599;1267;100257;-79
2023/05/08 02:06:31;;;;;;;13.50;9.30;;;;;;;2.49;78.91;102095.10;105005;1267;98310;-80
2023/05/08 02:09:21;;;;;;;10.90;8.40;;;;;;;2.49;78.95;102098.64;105005;1270;97987;-78
2023/05/08 02:12:09;;;;;;;12.30;8.20;;;;;;;2.50;79.07;102099.83;105074;1266;97997;-78
2023/05/08 02:14:55;;;;;;;11.50;8.20;;;;;;;2.46;79.15;102098.31;105082;1268;101436;-80
2023/05/08 02:17:44;;;;;;;12.50;8.70;;;;;;;2.41;79.07;102101.27;105101;1282;99077;-80
2023/05/08 02:20:31;;;;;;;14.60;8.50;;;;;;;2.38;79.15;102098.10;105670;1270;97973;-80
2023/05/08 02:23:18;;;;;;;12.00;8.20;;;;;;;2.41;79.22;102097.42;105059;1267;99005;-78
2023/05/08 02:26:04;;;;;;;16.70;9.40;;;;;;;2.42;79.41;102100.67;105302;1270;98421;-79
2023/05/08 02:28:53;;;;;;;13.20;8.90;;;;;;;2.40;79.34;102099.75;105086;1267;103076;-79
2023/05/08 02:31:41;;;;;;;16.90;9.00;;;;;;;2.39;79.01;102100.02;105213;1270;100006;-80
2023/05/08 02:34:28;;;;;;;13.00;8.80;;;;;;;2.35;78.81;102102.19;105081;1267;98011;-80
2023/05/08 02:37:14;;;;;;;11.00;8.40;;;;;;;2.29;78.71;102106.09;105570;1267;98015;-77
2023/05/08 02:40:03;;;;;;;10.90;8.10;;;;;;;2.21;78.58;102106.25;105712;1270;98493;-82
2023/05/08 02:42:49;;;;;;;13.30;8.70;;;;;;;2.15;78.97;102105.23;105485;1267;101337;-81
2023/05/08 02:45:42;;;;;;;14.60;8.20;;;;;;;2.13;79.36;102109.05;105603;1267;99194;-79
2023/05/08 02:48:35;;;;;;;12.70;8.60;;;;;;;2.11;79.60;102108.30;105496;1267;97984;-79
2023/05/08 02:51:54;;;;;;;22.50;8.30;;;;;;;2.09;79.65;102109.99;104989;1272;98045;-79
2023/05/08 02:55:10;;;;;;;13.70;9.20;;;;;;;2.05;79.59;102108.84;105060;1267;99128;-80
2023/05/08 02:58:17;;;;;;;12.10;8.00;;;;;;;1.99;79.66;102111.14;105077;1267;101360;-79
2023/05/08 03:01:26;;;;;;;16.20;8.20;;;;;;;1.96;79.75;102111.33;105049;1270;99221;-79
2023/05/08 03:04:21;;;;;;;16.20;7.80;;;;;;;1.95;79.96;102111.45;105112;1267;97984;-78
2023/05/08 03:07:07;;;;;;;13.80;8.50;;;;;;;1.95;80.24;102110.56;105066;1267;97938;-78
2023/05/08 03:10:00;;;;;;;12.90;8.70;;;;;;;1.95;80.15;102108.45;104929;1272;97904;-77
2023/05/08 03:12:51;;;;;;;13.80;7.70;;;;;;;1.96;80.27;102110.85;105368;1267;101411;-79
2023/05/08 03:15:59;;;;;;;13.10;8.00;;;;;;;1.96;80.48;102109.94;105353;1267;99124;-81
2023/05/08 03:19:04;;;;;;;10.50;7.70;;;;;;;1.95;80.55;102113.17;105351;1267;99028;-78
2023/05/08 03:21:52;;;;;;;12.20;8.70;;;;;;;1.96;80.73;102117.73;104761;1274;98845;-79
2023/05/08 03:24:41;;;;;;;11.10;8.30;;;;;;;1.96;80.54;102120.55;104818;1271;97987;-78
2023/05/08 03:27:29;;;;;;;11.10;8.00;;;;;;;1.96;80.82;102122.64;105213;1270;101352;-79
2023/05/08 03:30:15;;;;;;;13.40;8.20;;;;;;;1.96;81.12;102121.05;105006;1270;99223;-78
2023/05/08 03:33:05;;;;;;;12.90;8.80;;;;;;;1.96;80.97;102121.95;105101;1270;97977;-79
2023/05/08 03:35:53;;;;;;;13.50;7.90;;;;;;;1.95;80.91;102121.09;105080;1273;98524;-80
2023/05/08 03:38:39;;;;;;;12.10;8.70;;;;;;;1.96;81.02;102121.77;105633;1270;151323;-81
2023/05/08 03:41:26;;;;;;;12.90;8.40;;;;;;;1.98;81.05;102120.40;105751;1271;101361;-81
2023/05/08 03:44:13;;;;;;;14.30;8.60;;;;;;;2.00;81.08;102117.83;105670;1270;99193;-78
2023/05/08 03:46:59;;;;;;;14.90;8.00;;;;;;;2.01;81.32;102119.67;105173;1273;99107;-79
2023/05/08 03:49:48;;;;;;;12.30;7.60;;;;;;;2.03;81.53;102121.13;105752;1267;98002;-80
2023/05/08 03:52:34;;;;;;;10.20;7.70;;;;;;;2.05;81.81;102121.52;105732;1267;98397;-80
2023/05/08 03:55:20;;;;;;;11.40;7.60;;;;;;;2.07;81.95;102118.21;105609;1267;102015;-81
2023/05/08 03:58:12;;;;;;;10.90;8.10;;;;;;;2.11;82.00;102124.54;105074;1266;99087;-79
2023/05/08 04:01:11;;;;;;;16.60;10.90;;;;;;;2.14;81.87;102129.95;105121;1267;98811;-80
2023/05/08 04:04:09;;;;;;;14.10;10.00;;;;;;;2.17;81.99;102136.29;105112;1271;97981;-79
2023/05/08 04:07:12;;;;;;;16.90;11.10;;;;;;;2.21;82.07;102136.35;105132;1267;98422;-79
2023/05/08 04:10:07;;;;;;;14.20;9.80;;;;;;;2.28;82.67;102135.24;105641;1267;103274;-80
2023/05/08 04:13:14;;;;;;;12.50;8.90;;;;;;;2.34;83.25;102134.66;105662;1267;99117;-79
2023/05/08 04:16:12;;;;;;;13.50;9.50;;;;;;;2.42;83.74;102138.94;105018;1270;97751;-78
2023/05/08 04:19:01;;;;;;;15.10;10.90;;;;;;;2.50;84.09;102140.36;105179;1268;97980;-79
2023/05/08 04:21:50;;;;;;;17.00;12.40;;;;;;;2.57;84.19;102142.89;105271;1270;98439;-79
2023/05/08 04:24:44;;;;;;;32.60;22.40;;;;;;;2.66;84.39;102144.98;105541;1270;102638;-79
2023/05/08 04:27:30;;;;;;;26.80;19.60;;;;;;;2.75;84.82;102148.23;105797;1270;100441;-79
2023/05/08 04:30:16;;;;;;;26.80;18.50;;;;;;;2.86;85.43;102150.67;105098;1270;98844;-79
2023/05/08 04:33:06;;;;;;;26.00;17.80;;;;;;;2.95;85.95;102157.65;104991;1267;97978;-80
2023/05/08 04:35:53;;;;;;;23.20;15.30;;;;;;;3.05;86.73;102157.90;105102;1270;98496;-79
2023/05/08 04:38:39;;;;;;;18.50;12.80;;;;;;;3.14;87.26;102159.42;105167;1270;102335;-80
2023/05/08 04:41:26;;;;;;;20.20;14.30;;;;;;;3.21;87.71;102163.73;105165;1268;99098;-79
2023/05/08 04:44:12;;;;;;;18.60;13.20;;;;;;;3.27;88.13;102166.49;105047;1270;97918;-79
2023/05/08 04:46:58;;;;;;;15.60;11.90;;;;;;;3.35;88.50;102170.06;105061;1272;98075;-80
2023/05/08 04:49:45;;;;;;;16.90;12.80;;;;;;;3.42;88.78;102167.77;105003;1274;97811;-79
2023/05/08 04:52:31;;;;;;;19.80;14.00;;;;;;;3.51;89.21;102172.46;105025;1267;102190;-79
2023/05/08 04:55:17;;;;;;;20.20;14.10;;;;;;;3.62;89.66;102176.46;105074;1268;99824;-80
2023/05/08 04:58:02;;;;;;;19.00;13.40;;;;;;;3.72;90.10;102177.00;105039;1270;98961;-80
2023/05/08 05:00:48;;;;;;;20.20;13.90;;;;;;;3.84;90.73;102179.90;105001;1271;98017;-78
2023/05/08 05:03:33;;;;;;;19.80;15.30;;;;;;;3.96;91.20;102182.94;104989;1267;97882;-79
2023/05/08 05:06:19;;;;;;;18.80;12.90;;;;;;;4.08;91.63;102185.97;105461;1267;102598;-81
2023/05/08 05:09:05;;;;;;;23.30;14.80;;;;;;;4.21;92.11;102185.95;104978;1270;99104;-80
2023/05/08 05:11:51;;;;;;;23.00;14.80;;;;;;;4.34;92.23;102188.38;104928;1267;99023;-79
2023/05/08 05:14:37;;;;;;;23.30;15.70;;;;;;;4.48;92.53;102192.17;104736;1267;98438;-79
2023/05/08 05:17:22;;;;;;;19.60;14.40;;;;;;;4.62;92.72;102194.89;104897;1267;98403;-79
2023/05/08 05:20:09;;;;;;;19.70;14.50;;;;;;;4.76;92.76;102195.64;105023;1266;101937;-79
2023/05/08 05:22:56;;;;;;;18.30;13.10;;;;;;;4.91;93.31;102197.38;105003;1271;99137;-78
2023/05/08 05:25:43;;;;;;;19.90;12.10;;;;;;;5.06;93.56;102196.39;105100;1267;99031;-78
2023/05/08 05:28:29;;;;;;;15.40;11.30;;;;;;;5.21;93.40;102195.11;104985;1267;98787;-78
2023/05/08 05:31:14;;;;;;;15.90;11.50;;;;;;;5.36;93.67;102195.20;105042;1267;97909;-79
2023/05/08 05:34:01;;;;;;;17.40;14.40;;;;;;;5.52;93.56;102194.70;105116;1267;101362;-78
2023/05/08 05:36:46;;;;;;;14.10;9.70;;;;;;;5.69;93.49;102194.52;104990;1267;99158;-78
2023/05/08 05:39:32;;;;;;;16.90;11.30;;;;;;;5.85;93.14;102198.20;104893;1267;97933;-79
2023/05/08 05:42:18;;;;;;;14.90;8.50;;;;;;;6.02;92.50;102204.90;105246;1270;98232;-80
2023/05/08 05:45:04;;;;;;;13.70;9.40;;;;;;;6.18;92.52;102204.88;105283;1266;97972;-80
2023/05/08 05:47:52;;;;;;;10.50;6.90;;;;;;;6.35;92.33;102206.21;105756;1270;101406;-79
2023/05/08 05:50:40;;;;;;;10.00;6.90;;;;;;;6.52;91.95;102204.14;105714;1273;100611;-82
2023/05/08 05:53:25;;;;;;;9.10;6.20;;;;;;;6.67;91.09;102206.23;105453;1267;99600;-79
2023/05/08 05:56:11;;;;;;;8.70;5.90;;;;;;;6.83;90.58;102204.61;105100;1268;98700;-79
2023/05/08 05:58:56;;;;;;;10.00;6.90;;;;;;;6.98;89.60;102208.50;105128;1267;97998;-79
2023/05/08 06:01:42;;;;;;;7.00;4.90;;;;;;;7.13;89.83;102206.92;105936;1270;101352;-81
2023/05/08 06:04:28;;;;;;;6.90;4.70;;;;;;;7.29;89.49;102205.76;105829;1267;100073;-80
2023/05/08 06:07:13;;;;;;;6.90;4.90;;;;;;;7.44;89.11;102205.41;105759;1267;98412;-80
2023/05/08 06:09:59;;;;;;;7.70;6.20;;;;;;;7.57;88.46;102206.79;105707;1271;97919;-80
2023/05/08 06:12:44;;;;;;;6.00;4.30;;;;;;;7.70;87.87;102206.16;105668;1267;98463;-80
2023/05/08 06:15:30;;;;;;;5.40;4.00;;;;;;;7.84;87.15;102206.79;105687;1270;101339;-80
2023/05/08 06:18:16;;;;;;;3.60;3.10;;;;;;;7.98;86.78;102207.05;105296;1267;99106;-79
2023/05/08 06:21:02;;;;;;;3.80;2.40;;;;;;;8.11;85.60;102207.09;105260;1268;99353;-78
2023/05/08 06:23:48;;;;;;;4.00;2.80;;;;;;;8.23;85.04;102204.50;105273;1270;97906;-79
2023/05/08 06:26:34;;;;;;;2.90;2.50;;;;;;;8.35;84.06;102205.05;105244;1273;99668;-79
2023/05/08 06:29:20;;;;;;;4.60;3.70;;;;;;;8.46;83.70;102205.11;105215;1267;102791;-81
2023/05/08 06:32:06;;;;;;;3.10;2.60;;;;;;;8.57;82.48;102203.61;105349;1267;99093;-83
2023/05/08 06:34:51;;;;;;;3.60;2.70;;;;;;;8.68;82.30;102207.09;105634;1270;98018;-81
2023/05/08 06:37:37;;;;;;;5.30;2.60;;;;;;;8.80;81.78;102207.40;105455;1271;98141;-79
2023/05/08 06:40:22;;;;;;;6.10;3.40;;;;;;;8.92;81.28;102205.27;105016;1271;97936;-80
2023/05/08 06:43:08;;;;;;;3.40;2.50;;;;;;;9.02;80.12;102205.77;105127;1270;102092;-82
2023/05/08 06:45:54;;;;;;;3.40;3.10;;;;;;;9.11;79.60;102201.39;105444;1266;99154;-83
2023/05/08 06:48:40;;;;;;;3.60;2.10;;;;;;;9.20;79.22;102199.30;105256;1271;98327;-82
2023/05/08 06:51:26;;;;;;;4.50;2.90;;;;;;;9.32;78.91;102199.88;105410;1271;98000;-82
2023/05/08 06:54:11;;;;;;;7.00;4.30;;;;;;;9.44;78.53;102201.41;105148;1266;98511;-83
2023/05/08 06:56:57;;;;;;;8.60;4.40;;;;;;;9.55;78.15;102199.33;105346;1267;101344;-82
2023/05/08 06:59:42;;;;;;;3.10;2.60;;;;;;;9.65;77.96;102199.95;105387;1267;99190;-82
2023/05/08 07:02:28;;;;;;;3.60;1.80;;;;;;;9.76;76.67;102202.70;105284;1271;99418;-80
2023/05/08 07:05:13;;;;;;;4.00;2.00;;;;;;;9.83;75.05;102203.42;105232;1267;98369;-80
2023/05/08 07:07:59;;;;;;;3.60;2.30;;;;;;;9.90;75.06;102209.70;105367;1268;98503;-79
2023/05/08 07:10:44;;;;;;;2.90;1.60;;;;;;;10.01;75.02;102206.20;104827;1270;103478;-78
2023/05/08 07:13:30;;;;;;;5.60;2.30;;;;;;;10.11;74.75;102209.95;104630;1267;100872;-77
2023/05/08 07:16:18;;;;;;;4.80;1.90;;;;;;;10.21;73.24;102209.50;105421;1267;98986;-82
2023/05/08 07:19:04;;;;;;;4.40;2.50;;;;;;;10.26;72.41;102212.23;105557;1267;97948;-81
2023/05/08 07:21:49;;;;;;;8.10;3.30;;;;;;;10.33;72.65;102213.19;105418;1270;98428;-81
2023/05/08 07:24:35;;;;;;;6.40;3.90;;;;;;;10.43;72.02;102211.36;105238;1271;101354;-83
2023/05/08 07:27:20;;;;;;;6.80;3.20;;;;;;;10.49;71.56;102213.92;105638;1267;99086;-83
2023/05/08 07:30:06;;;;;;;5.20;3.20;;;;;;;10.56;71.46;102217.70;105411;1271;97954;-80
2023/05/08 07:32:52;;;;;;;4.70;2.90;;;;;;;10.65;71.32;102217.38;105434;1270;97990;-80
2023/05/08 07:35:39;;;;;;;5.20;3.10;;;;;;;10.73;71.90;102216.77;105432;1271;97957;-78
2023/05/08 07:38:25;;;;;;;8.50;3.80;;;;;;;10.81;71.66;102214.51;104812;1271;102685;-81
2023/05/08 07:41:11;;;;;;;5.90;3.00;;;;;;;10.88;70.96;102212.79;104879;1267;100078;-84
2023/05/08 07:43:56;;;;;;;7.60;3.60;;;;;;;10.94;70.93;102212.72;105298;1271;99068;-82
2023/05/08 07:46:42;;;;;;;5.40;2.80;;;;;;;11.04;71.43;102212.09;105332;1267;98571;-87
2023/05/08 07:49:28;;;;;;;6.20;3.10;;;;;;;11.14;71.09;102209.63;105403;1271;98034;-82
2023/05/08 07:52:13;;;;;;;8.00;3.40;;;;;;;11.24;70.89;102208.16;105456;1270;101451;-78
2023/05/08 07:54:58;;;;;;;4.00;3.10;;;;;;;11.31;70.18;102205.76;105387;1267;99093;-81
2023/05/08 07:57:44;;;;;;;7.60;3.20;;;;;;;11.40;70.49;102207.40;105365;1267;99008;-84
2023/05/08 08:00:30;;;;;;;5.90;3.50;;;;;;;11.47;69.72;102204.16;105372;1278;98045;-81
2023/05/08 08:03:16;;;;;;;4.80;3.90;;;;;;;11.53;69.22;102203.55;105630;1267;98648;-81
2023/05/08 08:06:01;;;;;;;4.60;3.20;;;;;;;11.60;69.02;102198.20;105483;1271;102665;-81
2023/05/08 08:08:46;;;;;;;7.50;3.50;;;;;;;11.67;69.28;102199.09;105440;1267;99200;-83
2023/05/08 08:11:32;;;;;;;5.70;3.70;;;;;;;11.74;68.04;102198.76;104799;1267;97990;-83
2023/05/08 08:14:18;;;;;;;4.90;3.70;;;;;;;11.76;67.54;102196.95;105524;1267;97975;-86
2023/05/08 08:17:03;;;;;;;5.50;4.20;;;;;;;11.81;67.44;102194.14;104835;1268;97882;-82
2023/05/08 08:19:49;;;;;;;4.20;2.90;;;;;;;11.89;67.90;102193.13;105220;1267;103089;-83
2023/05/08 08:22:37;;;;;;;5.20;3.00;;;;;;;11.99;67.22;102192.80;105319;1273;99077;-85
2023/05/08 08:25:23;;;;;;;3.80;2.90;;;;;;;12.07;66.91;102190.11;105334;1271;98629;-84
2023/05/08 08:28:09;;;;;;;4.50;3.10;;;;;;;12.18;66.84;102189.40;106080;1266;97861;-81
2023/05/08 08:30:54;;;;;;;3.20;2.80;;;;;;;12.29;66.78;102188.77;104725;1266;98524;-79
2023/05/08 08:33:39;;;;;;;4.20;3.10;;;;;;;12.42;67.41;102187.39;105019;1270;101349;-80
2023/05/08 08:36:25;;;;;;;9.70;3.20;;;;;;;12.57;66.97;102190.86;105667;1268;99097;-80
2023/05/08 08:39:11;;;;;;;5.60;3.10;;;;;;;12.68;66.04;102187.25;105528;1271;98324;-80
2023/05/08 08:41:57;;;;;;;5.80;3.50;;;;;;;12.77;65.40;102186.27;105606;1268;98958;-81
2023/05/08 08:44:43;;;;;;;5.70;3.20;;;;;;;12.86;64.52;102187.12;105556;1270;98463;-80
2023/05/08 08:47:36;;;;;;;3.50;2.80;;;;;;;12.94;64.16;102182.16;105582;1267;102650;-81
2023/05/08 08:50:22;;;;;;;6.10;3.10;;;;;;;13.03;64.65;102174.88;105533;1268;100824;-82
2023/05/08 08:53:23;;;;;;;4.10;2.90;;;;;;;13.15;64.62;102173.07;105769;1266;98492;-80
2023/05/08 08:56:10;;;;;;;;;;;;;;;13.28;64.57;102172.19;105424;1267;97892;-86
2023/05/08 08:59:00;;;;;;;4.90;3.40;;;;;;;13.37;64.05;102171.89;105970;1270;98871;-87
2023/05/08 09:01:50;;;;;;;5.10;3.10;;;;;;;13.49;64.11;102171.66;105289;1270;101410;-85
2023/05/08 09:04:37;;;;;;;5.60;3.30;;;;;;;13.62;63.42;102169.34;105523;1267;101283;-84
2023/05/08 09:07:24;;;;;;;4.20;3.60;;;;;;;13.71;62.26;102168.60;105429;1270;99135;-87
2023/05/08 09:10:14;;;;;;;7.00;3.90;;;;;;;13.73;61.26;102171.63;105418;1268;97992;-78
2023/05/08 09:13:00;;;;;;;7.70;4.70;;;;;;;13.76;61.32;102171.90;104596;1270;98036;-77
2023/05/08 09:15:46;;;;;;;6.50;3.90;;;;;;;13.83;60.61;102172.50;104831;1270;102761;-78
2023/05/08 09:18:31;;;;;;;8.90;3.80;;;;;;;13.87;60.50;102172.80;104963;1270;100288;-79
2023/05/08 09:21:17;;;;;;;6.20;3.50;;;;;;;13.82;60.00;102169.58;104618;1270;99059;-78
2023/05/08 09:24:04;;;;;;;5.50;3.00;;;;;;;13.71;59.39;102169.55;104497;1267;98673;-78
2023/05/08 09:26:49;;;;;;;5.10;3.70;;;;;;;13.72;59.56;102164.39;105103;1267;97995;-78
2023/05/08 09:29:35;;;;;;;4.60;3.80;;;;;;;13.76;59.47;102168.30;104555;1270;101371;-76
2023/05/08 09:32:20;;;;;;;8.80;4.10;;;;;;;13.79;59.43;102163.65;104577;1269;100204;-77
2023/05/08 09:35:08;;;;;;;8.80;4.80;;;;;;;13.88;59.27;102162.97;104575;1270;98995;-76
2023/05/08 09:37:54;;;;;;;7.30;3.80;;;;;;;14.01;59.40;102164.06;104523;1270;97952;-78
2023/05/08 09:40:40;;;;;;;5.10;3.80;;;;;;;14.14;58.91;102162.71;104582;1270;98503;-76
2023/05/08 09:43:26;;;;;;;5.70;3.50;;;;;;;14.25;58.55;102158.80;104646;1267;102614;-78
2023/05/08 09:46:17;;;;;;;4.80;3.70;;;;;;;14.30;57.53;102159.50;104696;1271;100390;-77
2023/05/08 09:49:03;;;;;;;8.80;3.30;;;;;;;14.21;57.15;102163.55;104535;1270;97995;-76
2023/05/08 09:51:54;;;;;;;3.90;2.90;;;;;;;14.24;57.12;102158.89;104488;1270;97962;-78
2023/05/08 09:54:40;;;;;;;4.20;3.50;;;;;;;14.37;57.69;102156.17;104544;1270;99279;-78
2023/05/08 09:57:27;;;;;;;6.90;3.90;;;;;;;14.48;58.23;102152.53;104630;1270;109922;-79
2023/05/08 10:00:13;;;;;;;7.70;3.70;;;;;;;14.61;57.68;102148.91;104585;1266;99596;-77
2023/05/08 10:03:01;;;;;;;4.30;3.40;;;;;;;14.74;58.00;102147.77;104527;1268;97983;-77
2023/05/08 10:05:47;;;;;;;9.40;3.60;;;;;;;14.86;57.58;102145.73;104541;1267;98084;-76
2023/05/08 10:08:32;;;;;;;5.60;3.80;;;;;;;14.94;57.37;102145.44;104547;1266;97880;-77
2023/05/08 10:14:19;;;;;;;5.60;3.60;;;;;;;15.10;56.50;102132.95;103535;1270;106649;-77
2023/05/08 10:17:07;;;;;;;5.90;4.40;;;;;;;15.16;55.82;102133.25;104573;1278;97972;-77
2023/05/08 10:19:59;;;;;;;7.20;3.80;;;;;;;15.22;55.68;102132.53;104642;1270;97938;-77
2023/05/08 10:22:46;;;;;;;9.10;3.60;;;;;;;15.27;55.20;102131.82;104732;1272;98424;-78
2023/05/08 10:25:34;;;;;;;14.80;4.30;;;;;;;15.33;55.55;102123.09;106831;1267;101330;-76
2023/05/08 10:28:39;;;;;;;8.00;3.90;;;;;;;15.46;55.68;102123.08;105913;1270;99196;-77
2023/05/08 10:31:27;;;;;;;7.60;5.40;;;;;;;15.57;55.49;102122.09;104548;1270;99253;-78
2023/05/08 10:34:18;;;;;;;12.90;4.60;;;;;;;15.65;54.52;102116.52;104464;1267;97982;-78
2023/05/08 10:37:04;;;;;;;;;;;;;;;15.72;53.81;102116.71;104507;1270;99238;-77
2023/05/08 10:39:53;;;;;;;10.80;3.60;;;;;;;15.74;53.23;102120.61;104561;1272;103040;-77
2023/05/08 10:42:39;;;;;;;11.00;3.90;;;;;;;15.78;52.56;102121.39;104528;1267;100308;-78
2023/05/08 10:45:25;;;;;;;5.10;2.90;;;;;;;15.80;51.30;102119.34;104507;1270;100072;-77
2023/05/08 10:48:46;;;;;;;6.40;4.40;;;;;;;15.73;50.97;102123.74;104487;1271;98512;-78
2023/05/08 10:51:51;;;;;;;9.40;5.20;;;;;;;15.59;50.27;102120.65;104490;1267;99583;-75
2023/05/08 10:55:05;;;;;;;6.00;3.70;;;;;;;15.49;50.46;102118.48;104546;1270;102605;-77
2023/05/08 10:58:10;;;;;;;10.50;3.60;;;;;;;15.60;52.01;102115.44;104631;1270;99082;-76
2023/05/08 11:00:56;;;;;;;6.30;3.70;;;;;;;15.78;52.52;102114.77;104510;1270;98120;-78
2023/05/08 11:03:44;;;;;;;5.60;3.40;;;;;;;15.93;52.80;102107.52;104580;1271;99307;-78
2023/05/08 11:06:45;;;;;;;5.80;3.80;;;;;;;16.01;52.22;102111.21;104651;1273;98516;-78
2023/05/08 11:09:45;;;;;;;6.30;3.80;;;;;;;15.96;50.51;102106.52;105327;1271;103342;-77
2023/05/08 11:12:32;;;;;;;5.90;4.20;;;;;;;15.96;49.56;102106.23;104854;1269;99341;-78
2023/05/08 11:15:35;;;;;;;5.30;4.00;;;;;;;16.02;49.93;102106.37;104475;1270;98084;-77
2023/05/08 11:18:21;;;;;;;7.00;3.70;;;;;;;16.09;49.27;102102.98;104527;1274;97977;-77
2023/05/08 11:21:14;;;;;;;4.40;2.90;;;;;;;16.09;49.16;102099.77;104495;1273;98321;-76
2023/05/08 11:24:09;;;;;;;6.10;3.10;;;;;;;16.03;49.42;102098.86;104497;1267;102633;-76
2023/05/08 11:26:55;;;;;;;9.00;2.50;;;;;;;15.99;48.97;102095.02;104503;1271;100115;-77
2023/05/08 11:29:41;;;;;;;4.10;2.90;;;;;;;15.90;48.45;102095.62;104428;1267;99522;-78
2023/05/08 11:32:58;;;;;;;3.90;2.70;;;;;;;15.82;48.89;102093.84;104531;1276;97995;-78
2023/05/08 11:35:55;;;;;;;3.80;2.40;;;;;;;15.86;48.89;102086.17;104755;1270;95967;-78
2023/05/08 11:38:42;;;;;;;5.00;2.70;;;;;;;15.99;49.73;102088.66;104573;1272;102640;-77
2023/05/08 11:41:28;;;;;;;3.60;2.30;;;;;;;16.08;47.44;102086.47;104502;1269;100357;-78
2023/05/08 11:44:19;;;;;;;3.60;2.40;;;;;;;16.02;46.89;102087.28;104650;1271;99217;-77
2023/05/08 11:47:05;;;;;;;3.90;1.80;;;;;;;15.86;45.75;102089.55;104746;1271;97996;-79
2023/05/08 11:49:54;;;;;;;5.40;2.80;;;;;;;15.70;45.98;102088.66;104645;1270;97985;-79
2023/05/08 11:52:41;;;;;;;4.50;2.30;;;;;;;15.66;45.58;102088.40;104654;1267;101420;-78
2023/05/08 11:55:27;;;;;;;3.10;2.50;;;;;;;15.54;45.45;102084.53;104739;1270;99107;-79
2023/05/08 11:58:14;;;;;;;3.30;2.40;;;;;;;15.46;45.01;102083.45;104800;1267;99920;-78
2023/05/08 12:00:59;;;;;;;3.30;2.90;;;;;;;15.41;45.76;102085.50;104591;1272;98774;-77
2023/05/08 12:03:45;;;;;;;4.00;3.10;;;;;;;15.41;45.83;102084.85;104530;1270;98497;-78
2023/05/08 12:06:31;;;;;;;5.00;2.90;;;;;;;15.39;45.17;102079.58;104536;1269;102751;-76
2023/05/08 12:09:19;;;;;;;7.10;2.70;;;;;;;15.31;44.99;102078.04;104484;1270;100456;-76
2023/05/08 12:12:04;;;;;;;3.50;2.50;;;;;;;15.26;45.43;102077.55;104486;1270;99256;-77
2023/05/08 12:14:50;;;;;;;6.00;2.90;;;;;;;15.24;45.02;102072.09;104575;1270;98054;-79
2023/05/08 12:17:36;;;;;;;4.60;2.60;;;;;;;15.26;45.39;102069.83;104509;1269;97818;-78
2023/05/08 12:20:24;;;;;;;3.20;2.40;;;;;;;15.35;44.63;102067.42;104678;1270;101397;-78
2023/05/08 12:23:09;;;;;;;4.50;2.30;;;;;;;15.38;44.68;102064.03;104609;1266;99874;-77
2023/05/08 12:25:59;;;;;;;5.80;2.40;;;;;;;15.45;44.91;102058.77;104507;1270;98977;-78
2023/05/08 12:28:46;;;;;;;3.90;2.30;;;;;;;15.55;44.87;102059.20;104464;1270;99410;-77
2023/05/08 12:31:33;;;;;;;4.30;2.30;;;;;;;15.60;44.75;102056.38;104631;1271;98593;-78
2023/05/08 12:34:19;;;;;;;2.20;2.00;;;;;;;15.64;44.79;102056.69;104546;1272;101352;-77
2023/05/08 12:37:05;;;;;;;3.50;2.50;;;;;;;15.77;45.24;102056.48;104561;1273;99130;-78
2023/05/08 12:39:50;;;;;;;3.40;2.40;;;;;;;15.76;43.84;102058.55;104561;1270;97881;-77
2023/05/08 12:42:48;;;;;;;3.70;2.30;;;;;;;15.68;42.56;102057.90;104484;1267;97982;-79
2023/05/08 12:45:39;;;;;;;5.80;2.50;;;;;;;15.66;42.62;102051.12;104522;1270;99698;-79
2023/05/08 12:48:25;;;;;;;7.40;2.60;;;;;;;15.70;43.40;102049.20;104531;1268;101429;-77
2023/05/08 12:51:10;;;;;;;2.80;2.20;;;;;;;15.78;43.49;102047.17;104602;1267;99437;-78
2023/05/08 12:53:56;;;;;;;4.20;2.50;;;;;;;15.92;43.23;102047.42;104575;1268;98040;-78
2023/05/08 12:56:43;;;;;;;6.10;2.40;;;;;;;16.01;43.40;102046.98;104527;1270;98103;-76